Popejoy, Iowa
Current Conditions -  °F | °C
As of 3:35 PM on Wednesday 26 Nov 2014 (Local Time) from KIFA Reporting Station
Light Snow Light Snow  
Wind Chill: 19°   Ceiling: 700
Heat Index: 29°   Visibility: 1.7mi
Dew Point: 26°   Wind: 14mph
Humidity: 89%   Direction: 360°N
Pressure: 30.13"   Gusts: NA
Location:  42.59°N, 93.43°W
Report Text: KIFA 262135Z AUTO 36012KT 1 3/4SM -SN OVC007 M01/M03 A3013 RMK AO2 T10151031
Loading
Personal Weather Stations






























Interactive Weather Map New forecast layout! Learn more

10-Day Weather Forecast

Advertisements
Track Severe Weather on mobile